createdAt,value
2023-08-31T00:09:06.556Z,8.20
2023-08-31T00:12:50.471Z,8.30
2023-08-31T00:33:23.281Z,9.20
2023-08-31T00:36:32.536Z,8.90
2023-08-31T01:00:41.707Z,7.10
2023-08-31T01:15:21.924Z,6.70
2023-08-31T01:18:03.304Z,6.30
2023-08-31T02:00:06.845Z,5.10
2023-08-31T02:08:01.508Z,5.10
2023-08-31T02:22:06.267Z,4.90
2023-08-31T02:26:04.993Z,5.10
2023-08-31T02:45:08.521Z,5.00
2023-08-31T02:59:36.279Z,5.70
2023-08-31T03:03:59.935Z,4.70
2023-08-31T03:12:32.083Z,5.70
2023-08-31T03:26:35.163Z,5.40
2023-08-31T03:40:27.341Z,5.10
2023-08-31T03:43:52.425Z,4.10
2023-08-31T04:02:36.395Z,3.80
2023-08-31T04:16:06.520Z,3.70
2023-08-31T04:49:16.133Z,3.10
2023-08-31T04:52:38.295Z,2.80
2023-08-31T04:55:45.377Z,2.40
2023-08-31T04:59:32.411Z,2.30
2023-08-31T05:02:00.815Z,2.50
2023-08-31T05:04:33.237Z,2.40
2023-08-31T05:07:09.337Z,2.60
2023-08-31T05:09:41.054Z,2.60
2023-08-31T05:14:38.892Z,2.60
2023-08-31T05:18:21.352Z,2.60
2023-08-31T05:21:48.239Z,2.40
2023-08-31T05:25:28.922Z,2.60
2023-08-31T05:27:58.074Z,2.90
2023-08-31T05:31:02.330Z,2.70
2023-08-31T05:33:34.921Z,2.40
2023-08-31T05:36:20.407Z,2.40
2023-08-31T05:38:49.308Z,2.20
2023-08-31T05:41:47.241Z,2.00
2023-08-31T05:45:48.892Z,1.60
2023-08-31T05:59:43.794Z,1.30
2023-08-31T06:02:46.062Z,1.20
2023-08-31T06:06:08.252Z,1.20
2023-08-31T06:09:55.624Z,1.20
2023-08-31T06:14:02.575Z,1.20
2023-08-31T06:17:45.963Z,1.20
2023-08-31T06:21:26.922Z,1.30
2023-08-31T06:36:32.756Z,1.50
2023-08-31T06:49:42.432Z,2.00
2023-08-31T07:03:27.021Z,1.70
2023-08-31T07:06:05.829Z,1.90
2023-08-31T07:09:52.210Z,1.70
2023-08-31T07:25:19.042Z,1.60
2023-08-31T07:28:04.478Z,1.50
2023-08-31T07:31:43.776Z,1.50
2023-08-31T07:46:18.426Z,1.50
2023-08-31T07:49:11.056Z,1.70
2023-08-31T08:03:26.177Z,1.50
2023-08-31T08:17:03.860Z,1.60
2023-08-31T08:20:10.827Z,1.50
2023-08-31T08:24:49.905Z,1.40
2023-08-31T08:38:01.532Z,1.30
2023-08-31T08:51:22.220Z,1.20
2023-08-31T08:53:52.059Z,1.20
2023-08-31T08:56:46.116Z,1.30
2023-08-31T08:59:20.556Z,1.20
2023-08-31T09:33:10.080Z,1.30
2023-08-31T09:36:30.924Z,1.80
2023-08-31T09:39:38.979Z,1.90
2023-08-31T09:43:28.536Z,1.70
2023-08-31T09:47:27.918Z,1.80
2023-08-31T09:50:35.918Z,1.90
2023-08-31T09:54:11.049Z,1.80
2023-08-31T09:56:46.449Z,1.90
2023-08-31T09:59:20.448Z,1.80
2023-08-31T10:01:49.245Z,2.00
2023-08-31T10:04:18.387Z,1.70
2023-08-31T10:27:22.222Z,1.50
2023-08-31T10:44:01.626Z,1.50
2023-08-31T10:48:02.329Z,1.40
2023-08-31T11:29:20.462Z,2.10
2023-08-31T11:32:12.709Z,1.70
2023-08-31T11:35:47.018Z,1.80
2023-08-31T11:39:28.021Z,1.60
2023-08-31T11:43:14.234Z,1.70
2023-08-31T11:45:45.660Z,2.00
2023-08-31T11:48:14.047Z,2.00
2023-08-31T11:50:43.655Z,1.90
2023-08-31T11:53:15.753Z,2.00
2023-08-31T11:58:14.489Z,2.10
2023-08-31T12:02:12.322Z,2.10
2023-08-31T12:05:50.045Z,2.10
2023-08-31T12:09:13.206Z,1.90
2023-08-31T12:12:58.614Z,1.80
2023-08-31T12:16:40.155Z,1.70
2023-08-31T12:20:34.268Z,2.10
2023-08-31T12:23:23.358Z,2.50
2023-08-31T12:27:18.270Z,1.90
2023-08-31T12:30:48.894Z,1.70
2023-08-31T12:34:25.376Z,1.90
2023-08-31T12:38:27.779Z,1.80
2023-08-31T12:41:34.704Z,2.10
2023-08-31T13:00:28.954Z,1.90
2023-08-31T13:04:11.628Z,2.00
2023-08-31T13:07:44.493Z,2.40
2023-08-31T13:11:42.426Z,2.20
2023-08-31T13:15:03.542Z,1.80
2023-08-31T13:19:00.095Z,2.20
2023-08-31T13:22:39.466Z,2.00
2023-08-31T13:26:18.741Z,2.10
2023-08-31T13:29:34.517Z,2.10
2023-08-31T13:33:26.421Z,2.00
2023-08-31T14:01:27.726Z,2.10
2023-08-31T14:15:04.516Z,2.30
2023-08-31T14:17:32.032Z,2.40
2023-08-31T14:20:06.407Z,2.70
2023-08-31T14:22:43.420Z,2.40
2023-08-31T14:25:12.532Z,2.40
2023-08-31T14:27:39.647Z,2.20
2023-08-31T14:30:09.391Z,2.50
2023-08-31T14:32:35.917Z,2.40
2023-08-31T14:35:06.288Z,2.40
2023-08-31T14:37:33.024Z,2.60
2023-08-31T14:39:59.677Z,3.00
2023-08-31T14:42:26.358Z,2.70
2023-08-31T14:44:53.415Z,2.80
2023-08-31T14:47:21.783Z,2.70
2023-08-31T14:49:48.290Z,2.90
2023-08-31T14:52:15.988Z,2.80
2023-08-31T14:54:42.708Z,3.40
2023-08-31T14:57:09.456Z,3.70
2023-08-31T14:59:36.016Z,3.90
2023-08-31T15:03:29.513Z,4.00
2023-08-31T15:17:53.979Z,5.60
2023-08-31T15:20:43.974Z,5.60
2023-08-31T15:24:23.725Z,5.50
2023-08-31T15:28:05.756Z,6.10
2023-08-31T15:32:05.470Z,5.80
2023-08-31T15:35:29.569Z,6.40
2023-08-31T15:39:13.848Z,6.40
2023-08-31T15:43:10.131Z,5.80
2023-08-31T15:46:35.173Z,5.70
2023-08-31T15:50:28.567Z,6.00
2023-08-31T16:04:14.014Z,6.70
2023-08-31T16:27:26.526Z,6.20
2023-08-31T17:52:19.201Z,2.80
2023-08-31T17:55:24.449Z,2.40
2023-08-31T17:59:23.000Z,2.40
2023-08-31T18:02:52.555Z,2.30
2023-08-31T18:16:49.930Z,2.50
2023-08-31T18:19:53.789Z,2.90
2023-08-31T18:23:19.201Z,2.60
2023-08-31T18:51:07.004Z,3.40
2023-08-31T19:00:06.182Z,3.20
2023-08-31T19:03:18.091Z,3.00
2023-08-31T19:23:37.290Z,4.60
2023-08-31T20:55:37.686Z,3.60
2023-08-31T22:04:17.524Z,4.30
2023-08-31T23:46:24.667Z,5.80
